Snow/Ice From: 15-12-2018 18:07 Until: 16-12-2018 16:00 warning for: Snow/Ice Level: Yellow info button

Although rather usual in this region, locally or potentially dangerous phenomena are expected. (such as local winds, summer thunderstorms, rising streams or high waves) Be aware and pay attention to the latest weather updates, especially if you carry out activities exposed to weather or close to a stream or shoreline. 

Meteo18 Weather Cam more information Meteo18 Weather Cam


Thunder radar more information blitzortung!


warning for Snow/Ice more information rain snow radar



Select another period ( hide this area )

Units Period Custom range Directly to
Metric English Both
Daily Weekly Monthly Yearly
use both date-selectors for a custom range
previous Day
With this date

WeatherUnderground graphs for this period ( click here )


Daily Summary for Saturday 15 December 2018
Time Temp. ( °C ) Dew pt. ( °C ) Wind ( km/h ) from Gust ( km/h ) Pressure ( hPa ) Humid.( % ) Rainrate ( cm )
High1,0 0,4 9,7 SE ( 192/401 ) 12,9 1023,2 96 -
Average-2,1 -3,2 1,5 Calm #144/268 -8,1 1012,4 91 -
Low-17,8 -17,8 -   -1607,4 0,0 0 -
Daily Tabular details for Saturday 15 December 2018
Time Temp. ( °C ) Dew pt. ( °C ) Wind ( km/h ) from Gust ( km/h ) Pressure ( hPa ) Humid.( % ) Rainrate ( cm )
00:04 -1,9 -3,3   Calm   1023,2 90 -
00:08 -1,9 -3,3   Calm   1023,2 90 -
00:14 -2,0 -3,4   Calm   1023,2 90 -
00:18 -2,1 -3,5   Calm   1022,9 90 -
00:24 -2,1 -3,4   Calm   1022,9 91 -
00:28 -2,1 -3,4   Calm   1022,9 91 -
00:34 -2,2 -3,5   Calm   1023,2 91 -
00:38 -2,2 -3,5   Calm   1022,9 91 -
00:44 -2,4 -3,7   Calm   1023,2 91 -
00:48 -2,4 -3,7   Calm 1,6 1023,2 91 -
00:54 -2,6 -3,7   Calm 1,6 1023,2 92 -
00:58 -2,6 -3,7   Calm   1022,9 92 -
01:04 -2,7 -3,8   Calm   1022,9 92 -
01:08 -2,7 -3,8 1,4 West 1,6 1022,9 92 -
01:14 -2,8 -3,9   Calm   1023,2 92 -
01:18 -2,8 -3,9   Calm   1022,9 92 -
01:24 -3,0 -4,1   Calm   1022,9 92 -
01:28 -3,1 -4,2   Calm   1023,2 92 -
01:34 -3,2 -4,2   Calm   1023,2 93 -
01:38 -3,1 -4,1   Calm   1023,2 93 -
01:44 -3,1 -4,1   Calm   1023,2 93 -
01:48 -3,1 -4,1   Calm   1023,2 93 -
01:54 -3,3 -4,4   Calm 1,6 1023,2 92 -
01:58 -3,4 -4,5   Calm   1023,2 92 -
02:04 -3,6 -4,6   Calm   1023,2 93 -
02:08 -3,6 -4,6   Calm   1023,2 93 -
02:14 -3,6 -4,6   Calm   1023,2 93 -
02:18 -3,7 -4,7   Calm 1,6 1023,2 93 -
02:24 -3,9 -4,9   Calm   1023,2 93 -
02:28 -3,9 -4,9   Calm   1022,9 93 -
02:32 -3,9 -4,9   Calm   1022,9 93 -
02:39 -3,9 -4,7   Calm   1022,9 94 -
02:43 -3,9 -4,7   Calm 1,6 1022,9 94 -
02:49 -4,1 -5,1   Calm   1022,9 93 -
02:53 -4,2 -5,2   Calm 1,6 1022,9 93 -
02:59 -4,3 -5,1   Calm   1022,9 94 -
03:03 -4,3 -5,1   Calm   1022,9 94 -
03:09 -4,3 -5,1   Calm   1022,9 94 -
03:13 -4,4 -5,2   Calm 1,6 1022,9 94 -
03:19 -4,5 -5,3   Calm   1022,9 94 -
03:23 -4,5 -5,3   Calm 1,6 1022,9 94 -
03:29 -4,5 -5,3   Calm   1022,9 94 -
03:33 -4,7 -5,5   Calm   1022,9 94 -
03:39 -4,7 -5,5   Calm   1022,9 94 -
03:43 -4,8 -5,6 1,4 WNW 1,6 1023,2 94 -
03:49 -4,7 -5,4   Calm   1022,9 95 -
03:53 -4,5 -5,2   Calm   1022,9 95 -
03:59 -4,3 -5,0   Calm   1022,9 95 -
04:03 -4,5 -5,3   Calm   1022,9 94 -
04:09 -4,7 -5,5   Calm   1022,9 94 -
04:13 -4,7 -5,5 1,4 North 1,6 1022,9 94 -
04:19 -4,7 -5,4   Calm   1022,9 95 -
04:23 -4,7 -5,4   Calm   1022,9 95 -
04:29 -4,6 -5,3 1,4 NNW 1,6 1022,9 95 -
04:33 -4,7 -5,4   Calm   1022,9 95 -
04:38 -4,7 -5,4   Calm   1022,9 95 -
04:44 -4,7 -5,4   Calm   1022,9 95 -
04:48 -4,6 -5,3 1,4 NE 1,6 1022,9 95 -
04:54 -4,6 -5,3   Calm 1,6 1022,9 95 -
04:58 -4,5 -5,2   Calm   1022,9 95 -
05:04 -4,6 -5,3   Calm   1022,9 95 -
05:08 -4,6 -5,3   Calm   1022,9 95 -
05:14 -4,6 -5,3   Calm   1022,9 95 -
05:18 -4,6 -5,3   Calm   1022,9 95 -
05:24 -4,6 -5,3   Calm   1022,9 95 -
05:28 -4,7 -5,4   Calm   1022,9 95 -
05:34 -4,8 -5,6   Calm   1022,9 94 -
05:38 -4,9 -5,7   Calm   1022,9 94 -
05:44 -4,9 -5,7   Calm   1023,2 94 -
05:48 -4,9 -5,6   Calm 1,6 1023,2 95 -
05:54 -4,8 -5,5   Calm 1,6 1022,9 95 -
05:58 -4,7 -5,4   Calm   1022,9 95 -
06:04 -4,6 -5,3   Calm 1,6 1022,6 95 -
06:08 -4,6 -5,3   Calm   1022,6 95 -
06:13 -4,6 -5,3   Calm   1022,6 95 -
06:19 -4,6 -5,3   Calm   1022,6 95 -
06:23 -4,6 -5,3   Calm   1022,6 95 -
06:29 -4,6 -5,3   Calm 1,6 1022,6 95 -
06:33 -4,6 -5,3   Calm 1,6 1022,6 95 -
06:39 -4,5 -5,2   Calm   1022,6 95 -
06:43 -4,5 -5,2   Calm   1022,2 95 -
06:49 -4,5 -5,2   Calm   1022,2 95 -
06:53 -4,6 -5,3   Calm 1,6 1022,2 95 -
06:59 -4,8 -5,6   Calm 1,6 1022,6 94 -
07:03 -4,9 -5,7   Calm   1022,2 94 -
07:09 -4,9 -5,6   Calm   1022,2 95 -
07:13 -4,8 -5,5   Calm   1022,2 95 -
07:19 -4,8 -5,5   Calm   1022,2 95 -
07:23 -5,0 -5,8   Calm 1,6 1022,6 94 -
07:29 -5,1 -5,8   Calm   1022,2 95 -
07:33 -4,9 -5,6   Calm   1022,6 95 -
07:39 -4,4 -4,9   Calm 1,6 1022,6 96 -
07:43 -4,5 -5,2   Calm   1022,2 95 -
07:49 -4,5 -5,2   Calm   1022,2 95 -
07:53 -4,4 -5,1   Calm   1022,2 95 -
07:59 -4,4 -5,1   Calm   1022,2 95 -
08:03 -4,4 -5,1   Calm   1022,2 95 -
08:09 -4,6 -5,3   Calm   1022,2 95 -
08:13 -4,5 -5,2   Calm   1022,2 95 -
08:19 -4,5 -5,2   Calm   1022,2 95 -
08:23 -4,5 -5,2   Calm   1022,2 95 -
08:29 -4,5 -5,2   Calm   1022,2 95 -
08:33 -4,3 -4,8   Calm   1022,2 96 -
08:37 -4,3 -5,0   Calm   1021,9 95 -
08:43 -4,2 -4,7   Calm   1021,9 96 -
08:48 -4,2 -4,7   Calm   1022,2 96 -
08:54 -4,1 -4,8   Calm 1,6 1021,9 95 -
08:58 -3,9 -4,4   Calm   1021,9 96 -
09:04 -3,9 -4,6   Calm   1021,9 95 -
09:08 -3,7 -4,4   Calm   1021,9 95 -
09:14 -3,8 -4,5   Calm   1021,9 95 -
09:18 -3,8 -4,5   Calm   1021,9 95 -
09:24 -3,6 -4,3   Calm   1021,9 95 -
09:28 -3,5 -4,2   Calm   1021,9 95 -
09:34 -3,4 -4,1   Calm   1021,9 95 -
09:38 -3,3 -4,0   Calm   1022,2 95 -
09:44 -3,2 -3,9   Calm 1,6 1021,9 95 -
09:48 -3,1 -3,8   Calm 1,6 1021,9 95 -
09:54 -2,8 -3,5   Calm   1021,9 95 -
09:58 -2,7 -3,4   Calm   1021,9 95 -
10:04 -2,5 -3,2   Calm   1021,9 95 -
10:08 -2,4 -3,1   Calm   1021,9 95 -
10:14 -2,4 -3,1   Calm 1,6 1021,9 95 -
10:18 -2,3 -3,1   Calm 1,6 1021,9 94 -
10:24 -2,2 -3,0   Calm   1021,9 94 -
10:28 -2,2 -3,0 1,4 ESE 3,2 1021,9 94 -
10:34 -2,1 -2,9 1,4 SE 1,6 1021,9 94 -
10:38 -2,1 -3,1   Calm 3,2 1021,9 93 -
10:44 -2,0 -3,0 1,4 SE 3,2 1021,9 93 -
10:48 -1,9 -3,0 1,4 SSE 3,2 1021,9 92 -
10:54 -1,9 -3,2 3,2 SSE 4,8 1021,9 91 -
10:58 -1,8 -3,1   Calm 3,2 1021,9 91 -
11:04 -1,7 -3,0   Calm 1,6 1021,9 91 -
11:08 -1,7 -3,0   Calm 3,2 1021,9 91 -
11:14 -1,6 -2,9   Calm 3,2 1021,9 91 -
11:18 -1,5 -2,8   Calm 1,6 1021,9 91 -
11:24 -1,4 -2,8 3,2 SE 4,8 1021,6 90 -
11:28 -1,3 -2,9 4,7 SE 4,8 1021,6 89 -
11:34 -1,3 -3,0 3,2 SE 6,4 1021,6 88 -
11:38 -1,2 -2,9 3,2 SSE 8,0 1021,2 88 -
11:44 -1,1 -2,8   Calm 4,8 1021,2 88 -
11:48 -1,0 -2,9   Calm 6,4 1021,2 87 -
11:54 -0,9 -2,8 4,7 SE 4,8 1021,2 87 -
11:58 -0,8 -3,0 1,4 SE 12,9 1021,2 85 -
12:04 -0,7 -2,9 1,4 SSE 8,0 1021,2 85 -
12:08 -0,7 -2,9 3,2 ESE 11,3 1021,2 85 -
12:14 -0,6 -2,8 7,9 SE 8,0 1021,2 85 -
12:18 -0,6 -3,0 3,2 SE 6,4 1021,2 84 -
12:24 -0,6 -3,0 4,7 ESE 8,0 1021,2 84 -
12:28 -0,6 -3,0 4,7 ESE 9,7 1021,2 84 -
12:34 -0,4 -2,8 3,2 SE 9,7 1021,2 84 -
12:38 -0,4 -2,8 3,2 SSE 4,8 1021,2 84 -
12:44 -0,4 -2,9 3,2 SE 9,7 1020,9 83 -
12:48 -0,4 -2,9 7,9 SE 9,7 1020,9 83 -
12:54 -0,3 -2,8 6,4 SE 6,4 1020,9 83 -
12:58 -0,3 -2,8 6,4 SE 8,0 1020,5 83 -
13:04 -0,3 -2,8 3,2 SE 9,7 1020,5 83 -
13:08 -0,3 -2,8 7,9 ESE 8,0 1020,5 83 -
13:14 -0,3 -2,8 3,2 SSE 9,7 1020,5 83 -
13:18 -0,3 -3,0 7,9 ESE 8,0 1020,2 82 -
13:24 -0,3 -3,0 6,4 ESE 12,9 1020,2 82 -
13:28 -0,2 -3,1 3,2 SSE 11,3 1019,9 81 -
13:34 -0,2 -2,9 1,4 SE 4,8 1019,9 82 -
13:38 -17,8 -17,8   Calm -1607,4 0,0 0 -
13:44 -0,1 -2,8 6,4 SE 9,7 1019,9 82 -
13:48 -0,1 -2,8 4,7 SSE 11,3 1019,5 82 -
13:54 -0,1 -2,8   Calm 9,7 1019,5 82 -
13:58 0,0 -2,7 1,4 SSE 11,3 1019,5 82 -
14:04 0,1 -2,4 3,2 SSE 12,9 1019,5 83 -
14:08 -17,8 -17,8   Calm -1607,4 0,0 0 -
14:12 0,1 -2,4 3,2 SE 8,0 1019,5 83 -
14:18 0,1 -2,4 1,4 SE 9,7 1019,5 83 -
14:22 0,2 -2,2 7,9 SSE 8,0 1019,2 84 -
14:28 0,1 -2,4 6,4 ESE 11,3 1019,2 83 -
14:32 0,1 -2,4 1,4 SE 9,7 1019,2 83 -
14:38 0,1 -2,3 1,4 ESE 8,0 1019,2 84 -
14:42 0,1 -2,1 1,4 SSE 3,2 1019,2 85 -
14:49 0,0 -2,2 4,7 SE 11,3 1018,8 85 -
14:53 0,0 -2,2 3,2 SE 8,0 1018,8 85 -
14:59 0,0 -2,2 3,2 SSE 9,7 1018,8 85 -
15:03 0,0 -2,2 1,4 SE 6,4 1018,8 85 -
15:09 -0,1 -2,2 6,4 SE 6,4 1018,8 86 -
15:13 -0,1 -2,2 6,4 SE 9,7 1018,8 86 -
15:19 -0,1 -2,2 1,4 SSE 6,4 1018,8 86 -
15:23 -0,1 -2,2 3,2 SE 8,0 1018,8 86 -
15:29 -0,1 -2,0 1,4 SSE 8,0 1018,5 87 -
15:33 -0,1 -2,0   Calm 8,0 1018,5 87 -
15:39 -0,1 -1,8 3,2 SE 8,0 1018,5 88 -
15:43 -0,2 -2,1 3,2 SSE 9,7 1018,2 87 -
15:49 -0,2 -1,9 3,2 South 6,4 1018,2 88 -
15:53 -0,2 -1,9 1,4 ESE 11,3 1018,2 88 -
15:59 -0,2 -1,9 1,4 SE 8,0 1017,8 88 -
16:03 -0,2 -1,9 4,7 SE 8,0 1017,8 88 -
16:09 -0,2 -1,9 3,2 SE 11,3 1017,8 88 -
16:13 -0,2 -1,9 3,2 SE 8,0 1017,8 88 -
16:19 -0,2 -1,9 1,4 West 6,4 1017,8 88 -
16:23 -0,2 -1,9 1,4 SSE 6,4 1017,8 88 -
16:29 -0,2 -1,9   Calm 4,8 1017,8 88 -
16:33 -0,2 -1,8 3,2 South 3,2 1017,8 89 -
16:39 -0,2 -1,8 1,4 SSE 6,4 1017,5 89 -
16:43 -0,2 -1,8 7,9 SSE 8,0 1017,5 89 -
16:49 -0,2 -1,8 3,2 SSE 3,2 1017,5 89 -
16:53 -0,2 -1,8 4,7 SE 8,0 1017,5 89 -
16:59 -0,2 -1,8   Calm 6,4 1017,5 89 -
17:03 -0,2 -1,8 1,4 SE 8,0 1017,2 89 -
17:09 -0,2 -1,6 3,2 SE 9,7 1017,2 90 -
17:13 -0,2 -1,6 6,4 SSE 11,3 1016,8 90 -
17:19 -0,2 -1,6 4,7 ESE 12,9 1016,8 90 -
17:23 -0,3 -1,7 1,4 SSE 8,0 1016,8 90 -
17:29 -0,2 -1,6 3,2 South 4,8 1017,2 90 -
17:33 -0,2 -1,6 1,4 SE 6,4 1016,8 90 -
17:39 -0,2 -1,5 1,4 SE 6,4 1016,8 91 -
17:43 -0,3 -1,6 1,4 SE 8,0 1016,5 91 -
17:49 -0,3 -1,6   Calm 8,0 1016,8 91 -
17:53 -0,2 -1,5 3,2 SE 4,8 1016,5 91 -
17:59 -0,2 -1,3 6,4 ESE 6,4 1016,1 92 -
18:03 -0,2 -1,3 9,7 SE 9,7 1016,1 92 -
18:09 -0,2 -1,3 3,2 SE 11,3 1016,1 92 -
18:13 -0,2 -1,3 3,2 SE 8,0 1015,8 92 -
18:19 -0,2 -1,3 1,4 SSE 9,7 1015,5 92 -
18:23 -0,1 -1,1 1,4 ESE 9,7 1015,5 93 -
18:29 -0,1 -1,1 3,2 SSE 9,7 1015,8 93 -
18:33 -0,1 -1,1 3,2 SSE 6,4 1015,8 93 -
18:39 -0,1 -1,1 3,2 SE 8,0 1015,5 93 -
18:43 0,0 -1,0 6,4 SE 6,4 1015,5 93 -
18:49 0,0 -1,0 4,7 SE 6,4 1015,5 93 -
18:53 0,0 -1,0 3,2 SE 9,7 1015,1 93 -
18:59 0,1 -0,9 1,4 South 9,7 1015,1 93 -
19:03 0,1 -0,9 1,4 SSE 6,4 1015,5 93 -
19:09 0,1 -0,8 4,7 ESE 4,8 1015,5 94 -
19:13 0,1 -0,8 3,2 SE 6,4 1015,1 94 -
19:19 0,1 -0,8 3,2 South 9,7 1015,1 94 -
19:23 0,1 -0,8 1,4 SSE 4,8 1015,1 94 -
19:29 0,2 -0,7 3,2 SSE 3,2 1015,1 94 -
19:33 0,2 -0,7 1,4 SE 8,0 1014,8 94 -
19:39 0,2 -0,7 3,2 SE 8,0 1014,8 94 -
19:43 0,2 -0,7 6,4 ESE 6,4 1014,8 94 -
19:49 0,2 -0,7 3,2 SSE 6,4 1014,8 94 -
19:53 0,2 -0,7 3,2 SSE 4,8 1014,8 94 -
19:59 0,3 -0,6 1,4 South 6,4 1014,4 94 -
20:03 0,3 -0,6 1,4 SSE 4,8 1014,4 94 -
20:09 0,3 -0,4   Calm 3,2 1014,8 95 -
20:13 0,3 -0,4 6,4 South 6,4 1014,8 95 -
20:19 0,3 -0,4   Calm 9,7 1014,4 95 -
20:23 0,3 -0,4   Calm 3,2 1014,4 95 -
20:29 0,3 -0,4 4,7 SE 4,8 1014,4 95 -
20:33 0,4 -0,3 1,4 SE 9,7 1014,1 95 -
20:39 0,4 -0,3 3,2 SSE 4,8 1014,4 95 -
20:43 0,4 -0,3 1,4 SE 4,8 1014,1 95 -
20:49 0,4 -0,3 1,4 SSE 4,8 1014,1 95 -
20:53 0,5 -0,2 1,4 SE 6,4 1013,8 95 -
20:59 0,5 -0,2   Calm 3,2 1013,8 95 -
21:03 0,5 -0,1   Calm 3,2 1013,8 96 -
21:09 0,5 -0,1 4,7 South 6,4 1013,4 96 -
21:13 0,6 0,0   Calm 4,8 1013,4 96 -
21:19 0,6 0,0 1,4 SSE 6,4 1013,4 96 -
21:23 0,6 0,0   Calm 6,4 1013,1 96 -
21:29 0,7 0,1 1,4 SSE 6,4 1013,4 96 -
21:33 0,7 0,1 1,4 East 6,4 1013,1 96 -
21:39 0,7 0,1 1,4 SE 8,0 1013,1 96 -
21:43 0,8 0,2 1,4 South 6,4 1013,1 96 -
21:49 0,8 0,2 4,7 ESE 8,0 1013,1 96 -
21:53 0,8 0,2 1,4 SE 4,8 1012,8 96 -
21:59 0,9 0,3 1,4 SE 8,0 1012,8 96 -
22:03 0,9 0,3 1,4 SE 6,4 1012,8 96 -
22:09 0,9 0,3 3,2 SE 9,7 1012,8 96 -
22:13 0,9 0,3   Calm 6,4 1012,8 96 -
22:19 1,0 0,4   Calm 6,4 1012,4 96 -
Daily Summary for Saturday 15 December 2018
Time Temp. ( °C ) Dew pt. ( °C ) Wind ( km/h ) from Gust ( km/h ) Pressure ( hPa ) Humid.( % ) Rainrate ( cm )
High1,0 0,4 9,7 SE ( 192/401 ) 12,9 1023,2 96 -
Average-2,1 -3,2 1,5 Calm #144/268 -8,1 1012,4 91 -
Low-17,8 -17,8 -   -1607,4 0,0 0 -
Daily Tabular details for Saturday 15 December 2018
Time Temp. ( °C ) Dew pt. ( °C ) Wind ( km/h ) from Gust ( km/h ) Pressure ( hPa ) Humid.( % ) Rainrate ( cm )
00:04 -1,9 -3,3   Calm   1023,2 90 -
00:08 -1,9 -3,3   Calm   1023,2 90 -
00:14 -2,0 -3,4   Calm   1023,2 90 -
00:18 -2,1 -3,5   Calm   1022,9 90 -
00:24 -2,1 -3,4   Calm   1022,9 91 -
00:28 -2,1 -3,4   Calm   1022,9 91 -
00:34 -2,2 -3,5   Calm   1023,2 91 -
00:38 -2,2 -3,5   Calm   1022,9 91 -
00:44 -2,4 -3,7   Calm   1023,2 91 -
00:48 -2,4 -3,7   Calm 1,6 1023,2 91 -
00:54 -2,6 -3,7   Calm 1,6 1023,2 92 -
00:58 -2,6 -3,7   Calm   1022,9 92 -
01:04 -2,7 -3,8   Calm   1022,9 92 -
01:08 -2,7 -3,8 1,4 West 1,6 1022,9 92 -
01:14 -2,8 -3,9   Calm   1023,2 92 -
01:18 -2,8 -3,9   Calm   1022,9 92 -
01:24 -3,0 -4,1   Calm   1022,9 92 -
01:28 -3,1 -4,2   Calm   1023,2 92 -
01:34 -3,2 -4,2   Calm   1023,2 93 -
01:38 -3,1 -4,1   Calm   1023,2 93 -
01:44 -3,1 -4,1   Calm   1023,2 93 -
01:48 -3,1 -4,1   Calm   1023,2 93 -
01:54 -3,3 -4,4   Calm 1,6 1023,2 92 -
01:58 -3,4 -4,5   Calm   1023,2 92 -
02:04 -3,6 -4,6   Calm   1023,2 93 -
02:08 -3,6 -4,6   Calm   1023,2 93 -
02:14 -3,6 -4,6   Calm   1023,2 93 -
02:18 -3,7 -4,7   Calm 1,6 1023,2 93 -
02:24 -3,9 -4,9   Calm   1023,2 93 -
02:28 -3,9 -4,9   Calm   1022,9 93 -
02:32 -3,9 -4,9   Calm   1022,9 93 -
02:39 -3,9 -4,7   Calm   1022,9 94 -
02:43 -3,9 -4,7   Calm 1,6 1022,9 94 -
02:49 -4,1 -5,1   Calm   1022,9 93 -
02:53 -4,2 -5,2   Calm 1,6 1022,9 93 -
02:59 -4,3 -5,1   Calm   1022,9 94 -
03:03 -4,3 -5,1   Calm   1022,9 94 -
03:09 -4,3 -5,1   Calm   1022,9 94 -
03:13 -4,4 -5,2   Calm 1,6 1022,9 94 -
03:19 -4,5 -5,3   Calm   1022,9 94 -
03:23 -4,5 -5,3   Calm 1,6 1022,9 94 -
03:29 -4,5 -5,3   Calm   1022,9 94 -
03:33 -4,7 -5,5   Calm   1022,9 94 -
03:39 -4,7 -5,5   Calm   1022,9 94 -
03:43 -4,8 -5,6 1,4 WNW 1,6 1023,2 94 -
03:49 -4,7 -5,4   Calm   1022,9 95 -
03:53 -4,5 -5,2   Calm   1022,9 95 -
03:59 -4,3 -5,0   Calm   1022,9 95 -
04:03 -4,5 -5,3   Calm   1022,9 94 -
04:09 -4,7 -5,5   Calm   1022,9 94 -
04:13 -4,7 -5,5 1,4 North 1,6 1022,9 94 -
04:19 -4,7 -5,4   Calm   1022,9 95 -
04:23 -4,7 -5,4   Calm   1022,9 95 -
04:29 -4,6 -5,3 1,4 NNW 1,6 1022,9 95 -
04:33 -4,7 -5,4   Calm   1022,9 95 -
04:38 -4,7 -5,4   Calm   1022,9 95 -
04:44 -4,7 -5,4   Calm   1022,9 95 -
04:48 -4,6 -5,3 1,4 NE 1,6 1022,9 95 -
04:54 -4,6 -5,3   Calm 1,6 1022,9 95 -
04:58 -4,5 -5,2   Calm   1022,9 95 -
05:04 -4,6 -5,3   Calm   1022,9 95 -
05:08 -4,6 -5,3   Calm   1022,9 95 -
05:14 -4,6 -5,3   Calm   1022,9 95 -
05:18 -4,6 -5,3   Calm   1022,9 95 -
05:24 -4,6 -5,3   Calm   1022,9 95 -
05:28 -4,7 -5,4   Calm   1022,9 95 -
05:34 -4,8 -5,6   Calm   1022,9 94 -
05:38 -4,9 -5,7   Calm   1022,9 94 -
05:44 -4,9 -5,7   Calm   1023,2 94 -
05:48 -4,9 -5,6   Calm 1,6 1023,2 95 -
05:54 -4,8 -5,5   Calm 1,6 1022,9 95 -
05:58 -4,7 -5,4   Calm   1022,9 95 -
06:04 -4,6 -5,3   Calm 1,6 1022,6 95 -
06:08 -4,6 -5,3   Calm   1022,6 95 -
06:13 -4,6 -5,3   Calm   1022,6 95 -
06:19 -4,6 -5,3   Calm   1022,6 95 -
06:23 -4,6 -5,3   Calm   1022,6 95 -
06:29 -4,6 -5,3   Calm 1,6 1022,6 95 -
06:33 -4,6 -5,3   Calm 1,6 1022,6 95 -
06:39 -4,5 -5,2   Calm   1022,6 95 -
06:43 -4,5 -5,2   Calm   1022,2 95 -
06:49 -4,5 -5,2   Calm   1022,2 95 -
06:53 -4,6 -5,3   Calm 1,6 1022,2 95 -
06:59 -4,8 -5,6   Calm 1,6 1022,6 94 -
07:03 -4,9 -5,7   Calm   1022,2 94 -
07:09 -4,9 -5,6   Calm   1022,2 95 -
07:13 -4,8 -5,5   Calm   1022,2 95 -
07:19 -4,8 -5,5   Calm   1022,2 95 -
07:23 -5,0 -5,8   Calm 1,6 1022,6 94 -
07:29 -5,1 -5,8   Calm   1022,2 95 -
07:33 -4,9 -5,6   Calm   1022,6 95 -
07:39 -4,4 -4,9   Calm 1,6 1022,6 96 -
07:43 -4,5 -5,2   Calm   1022,2 95 -
07:49 -4,5 -5,2   Calm   1022,2 95 -
07:53 -4,4 -5,1   Calm   1022,2 95 -
07:59 -4,4 -5,1   Calm   1022,2 95 -
08:03 -4,4 -5,1   Calm   1022,2 95 -
08:09 -4,6 -5,3   Calm   1022,2 95 -
08:13 -4,5 -5,2   Calm   1022,2 95 -
08:19 -4,5 -5,2   Calm   1022,2 95 -
08:23 -4,5 -5,2   Calm   1022,2 95 -
08:29 -4,5 -5,2   Calm   1022,2 95 -
08:33 -4,3 -4,8   Calm   1022,2 96 -
08:37 -4,3 -5,0   Calm   1021,9 95 -
08:43 -4,2 -4,7   Calm   1021,9 96 -
08:48 -4,2 -4,7   Calm   1022,2 96 -
08:54 -4,1 -4,8   Calm 1,6 1021,9 95 -
08:58 -3,9 -4,4   Calm   1021,9 96 -
09:04 -3,9 -4,6   Calm   1021,9 95 -
09:08 -3,7 -4,4   Calm   1021,9 95 -
09:14 -3,8 -4,5   Calm   1021,9 95 -
09:18 -3,8 -4,5   Calm   1021,9 95 -
09:24 -3,6 -4,3   Calm   1021,9 95 -
09:28 -3,5 -4,2   Calm   1021,9 95 -
09:34 -3,4 -4,1   Calm   1021,9 95 -
09:38 -3,3 -4,0   Calm   1022,2 95 -
09:44 -3,2 -3,9   Calm 1,6 1021,9 95 -
09:48 -3,1 -3,8   Calm 1,6 1021,9 95 -
09:54 -2,8 -3,5   Calm   1021,9 95 -
09:58 -2,7 -3,4   Calm   1021,9 95 -
10:04 -2,5 -3,2   Calm   1021,9 95 -
10:08 -2,4 -3,1   Calm   1021,9 95 -
10:14 -2,4 -3,1   Calm 1,6 1021,9 95 -
10:18 -2,3 -3,1   Calm 1,6 1021,9 94 -
10:24 -2,2 -3,0   Calm   1021,9 94 -
10:28 -2,2 -3,0 1,4 ESE 3,2 1021,9 94 -
10:34 -2,1 -2,9 1,4 SE 1,6 1021,9 94 -
10:38 -2,1 -3,1   Calm 3,2 1021,9 93 -
10:44 -2,0 -3,0 1,4 SE 3,2 1021,9 93 -
10:48 -1,9 -3,0 1,4 SSE 3,2 1021,9 92 -
10:54 -1,9 -3,2 3,2 SSE 4,8 1021,9 91 -
10:58 -1,8 -3,1   Calm 3,2 1021,9 91 -
11:04 -1,7 -3,0   Calm 1,6 1021,9 91 -
11:08 -1,7 -3,0   Calm 3,2 1021,9 91 -
11:14 -1,6 -2,9   Calm 3,2 1021,9 91 -
11:18 -1,5 -2,8   Calm 1,6 1021,9 91 -
11:24 -1,4 -2,8 3,2 SE 4,8 1021,6 90 -
11:28 -1,3 -2,9 4,7 SE 4,8 1021,6 89 -
11:34 -1,3 -3,0 3,2 SE 6,4 1021,6 88 -
11:38 -1,2 -2,9 3,2 SSE 8,0 1021,2 88 -
11:44 -1,1 -2,8   Calm 4,8 1021,2 88 -
11:48 -1,0 -2,9   Calm 6,4 1021,2 87 -
11:54 -0,9 -2,8 4,7 SE 4,8 1021,2 87 -
11:58 -0,8 -3,0 1,4 SE 12,9 1021,2 85 -
12:04 -0,7 -2,9 1,4 SSE 8,0 1021,2 85 -
12:08 -0,7 -2,9 3,2 ESE 11,3 1021,2 85 -
12:14 -0,6 -2,8 7,9 SE 8,0 1021,2 85 -
12:18 -0,6 -3,0 3,2 SE 6,4 1021,2 84 -
12:24 -0,6 -3,0 4,7 ESE 8,0 1021,2 84 -
12:28 -0,6 -3,0 4,7 ESE 9,7 1021,2 84 -
12:34 -0,4 -2,8 3,2 SE 9,7 1021,2 84 -
12:38 -0,4 -2,8 3,2 SSE 4,8 1021,2 84 -
12:44 -0,4 -2,9 3,2 SE 9,7 1020,9 83 -
12:48 -0,4 -2,9 7,9 SE 9,7 1020,9 83 -
12:54 -0,3 -2,8 6,4 SE 6,4 1020,9 83 -
12:58 -0,3 -2,8 6,4 SE 8,0 1020,5 83 -
13:04 -0,3 -2,8 3,2 SE 9,7 1020,5 83 -
13:08 -0,3 -2,8 7,9 ESE 8,0 1020,5 83 -
13:14 -0,3 -2,8 3,2 SSE 9,7 1020,5 83 -
13:18 -0,3 -3,0 7,9 ESE 8,0 1020,2 82 -
13:24 -0,3 -3,0 6,4 ESE 12,9 1020,2 82 -
13:28 -0,2 -3,1 3,2 SSE 11,3 1019,9 81 -
13:34 -0,2 -2,9 1,4 SE 4,8 1019,9 82 -
13:38 -17,8 -17,8   Calm -1607,4 0,0 0 -
13:44 -0,1 -2,8 6,4 SE 9,7 1019,9 82 -
13:48 -0,1 -2,8 4,7 SSE 11,3 1019,5 82 -
13:54 -0,1 -2,8   Calm 9,7 1019,5 82 -
13:58 0,0 -2,7 1,4 SSE 11,3 1019,5 82 -
14:04 0,1 -2,4 3,2 SSE 12,9 1019,5 83 -
14:08 -17,8 -17,8   Calm -1607,4 0,0 0 -
14:12 0,1 -2,4 3,2 SE 8,0 1019,5 83 -
14:18 0,1 -2,4 1,4 SE 9,7 1019,5 83 -
14:22 0,2 -2,2 7,9 SSE 8,0 1019,2 84 -
14:28 0,1 -2,4 6,4 ESE 11,3 1019,2 83 -
14:32 0,1 -2,4 1,4 SE 9,7 1019,2 83 -
14:38 0,1 -2,3 1,4 ESE 8,0 1019,2 84 -
14:42 0,1 -2,1 1,4 SSE 3,2 1019,2 85 -
14:49 0,0 -2,2 4,7 SE 11,3 1018,8 85 -
14:53 0,0 -2,2 3,2 SE 8,0 1018,8 85 -
14:59 0,0 -2,2 3,2 SSE 9,7 1018,8 85 -
15:03 0,0 -2,2 1,4 SE 6,4 1018,8 85 -
15:09 -0,1 -2,2 6,4 SE 6,4 1018,8 86 -
15:13 -0,1 -2,2 6,4 SE 9,7 1018,8 86 -
15:19 -0,1 -2,2 1,4 SSE 6,4 1018,8 86 -
15:23 -0,1 -2,2 3,2 SE 8,0 1018,8 86 -
15:29 -0,1 -2,0 1,4 SSE 8,0 1018,5 87 -
15:33 -0,1 -2,0   Calm 8,0 1018,5 87 -
15:39 -0,1 -1,8 3,2 SE 8,0 1018,5 88 -
15:43 -0,2 -2,1 3,2 SSE 9,7 1018,2 87 -
15:49 -0,2 -1,9 3,2 South 6,4 1018,2 88 -
15:53 -0,2 -1,9 1,4 ESE 11,3 1018,2 88 -
15:59 -0,2 -1,9 1,4 SE 8,0 1017,8 88 -
16:03 -0,2 -1,9 4,7 SE 8,0 1017,8 88 -
16:09 -0,2 -1,9 3,2 SE 11,3 1017,8 88 -
16:13 -0,2 -1,9 3,2 SE 8,0 1017,8 88 -
16:19 -0,2 -1,9 1,4 West 6,4 1017,8 88 -
16:23 -0,2 -1,9 1,4 SSE 6,4 1017,8 88 -
16:29 -0,2 -1,9   Calm 4,8 1017,8 88 -
16:33 -0,2 -1,8 3,2 South 3,2 1017,8 89 -
16:39 -0,2 -1,8 1,4 SSE 6,4 1017,5 89 -
16:43 -0,2 -1,8 7,9 SSE 8,0 1017,5 89 -
16:49 -0,2 -1,8 3,2 SSE 3,2 1017,5 89 -
16:53 -0,2 -1,8 4,7 SE 8,0 1017,5 89 -
16:59 -0,2 -1,8   Calm 6,4 1017,5 89 -
17:03 -0,2 -1,8 1,4 SE 8,0 1017,2 89 -
17:09 -0,2 -1,6 3,2 SE 9,7 1017,2 90 -
17:13 -0,2 -1,6 6,4 SSE 11,3 1016,8 90 -
17:19 -0,2 -1,6 4,7 ESE 12,9 1016,8 90 -
17:23 -0,3 -1,7 1,4 SSE 8,0 1016,8 90 -
17:29 -0,2 -1,6 3,2 South 4,8 1017,2 90 -
17:33 -0,2 -1,6 1,4 SE 6,4 1016,8 90 -
17:39 -0,2 -1,5 1,4 SE 6,4 1016,8 91 -
17:43 -0,3 -1,6 1,4 SE 8,0 1016,5 91 -
17:49 -0,3 -1,6   Calm 8,0 1016,8 91 -
17:53 -0,2 -1,5 3,2 SE 4,8 1016,5 91 -
17:59 -0,2 -1,3 6,4 ESE 6,4 1016,1 92 -
18:03 -0,2 -1,3 9,7 SE 9,7 1016,1 92 -
18:09 -0,2 -1,3 3,2 SE 11,3 1016,1 92 -
18:13 -0,2 -1,3 3,2 SE 8,0 1015,8 92 -
18:19 -0,2 -1,3 1,4 SSE 9,7 1015,5 92 -
18:23 -0,1 -1,1 1,4 ESE 9,7 1015,5 93 -
18:29 -0,1 -1,1 3,2 SSE 9,7 1015,8 93 -
18:33 -0,1 -1,1 3,2 SSE 6,4 1015,8 93 -
18:39 -0,1 -1,1 3,2 SE 8,0 1015,5 93 -
18:43 0,0 -1,0 6,4 SE 6,4 1015,5 93 -
18:49 0,0 -1,0 4,7 SE 6,4 1015,5 93 -
18:53 0,0 -1,0 3,2 SE 9,7 1015,1 93 -
18:59 0,1 -0,9 1,4 South 9,7 1015,1 93 -
19:03 0,1 -0,9 1,4 SSE 6,4 1015,5 93 -
19:09 0,1 -0,8 4,7 ESE 4,8 1015,5 94 -
19:13 0,1 -0,8 3,2 SE 6,4 1015,1 94 -
19:19 0,1 -0,8 3,2 South 9,7 1015,1 94 -
19:23 0,1 -0,8 1,4 SSE 4,8 1015,1 94 -
19:29 0,2 -0,7 3,2 SSE 3,2 1015,1 94 -
19:33 0,2 -0,7 1,4 SE 8,0 1014,8 94 -
19:39 0,2 -0,7 3,2 SE 8,0 1014,8 94 -
19:43 0,2 -0,7 6,4 ESE 6,4 1014,8 94 -
19:49 0,2 -0,7 3,2 SSE 6,4 1014,8 94 -
19:53 0,2 -0,7 3,2 SSE 4,8 1014,8 94 -
19:59 0,3 -0,6 1,4 South 6,4 1014,4 94 -
20:03 0,3 -0,6 1,4 SSE 4,8 1014,4 94 -
20:09 0,3 -0,4   Calm 3,2 1014,8 95 -
20:13 0,3 -0,4 6,4 South 6,4 1014,8 95 -
20:19 0,3 -0,4   Calm 9,7 1014,4 95 -
20:23 0,3 -0,4   Calm 3,2 1014,4 95 -
20:29 0,3 -0,4 4,7 SE 4,8 1014,4 95 -
20:33 0,4 -0,3 1,4 SE 9,7 1014,1 95 -
20:39 0,4 -0,3 3,2 SSE 4,8 1014,4 95 -
20:43 0,4 -0,3 1,4 SE 4,8 1014,1 95 -
20:49 0,4 -0,3 1,4 SSE 4,8 1014,1 95 -
20:53 0,5 -0,2 1,4 SE 6,4 1013,8 95 -
20:59 0,5 -0,2   Calm 3,2 1013,8 95 -
21:03 0,5 -0,1   Calm 3,2 1013,8 96 -
21:09 0,5 -0,1 4,7 South 6,4 1013,4 96 -
21:13 0,6 0,0   Calm 4,8 1013,4 96 -
21:19 0,6 0,0 1,4 SSE 6,4 1013,4 96 -
21:23 0,6 0,0   Calm 6,4 1013,1 96 -
21:29 0,7 0,1 1,4 SSE 6,4 1013,4 96 -
21:33 0,7 0,1 1,4 East 6,4 1013,1 96 -
21:39 0,7 0,1 1,4 SE 8,0 1013,1 96 -
21:43 0,8 0,2 1,4 South 6,4 1013,1 96 -
21:49 0,8 0,2 4,7 ESE 8,0 1013,1 96 -
21:53 0,8 0,2 1,4 SE 4,8 1012,8 96 -
21:59 0,9 0,3 1,4 SE 8,0 1012,8 96 -
22:03 0,9 0,3 1,4 SE 6,4 1012,8 96 -
22:09 0,9 0,3 3,2 SE 9,7 1012,8 96 -
22:13 0,9 0,3   Calm 6,4 1012,8 96 -
22:19 1,0 0,4   Calm 6,4 1012,4 96 -

Download your copy of this data-set  here

Our weather-data as stored at Weather Underground. Script developed by Jim McMurry. Adapted for the template by Leuven-Template.eu

You find our weather info also at:

Weather Underground

Equipment we use:

Weather-station
Davis Vue

Weather-program
Meteobridge

Weather-server
Raspberry PI 2 B+

Provider
1 and 1

Davis Vue

Meteobridge

Raspberry PI 2 B+

1 and 1